Portada
METAR-TAF:

METAR-TAF

Aeroports :

Aeroport Internacional de Nador

Nador, Marroc

latitud: 34-59-20N, longitud: 003-01-42W, altitud: 175 m

Observació

L'informe es va fer fa 54 minuts, a les 04:00 UTC
Vent 4 kt del Oest
Temperatura 11°C
Humitat 94%
Pressió 1017 hPa
Visibilitat 10 km o més
sense núvols per sota de 1500 mi sense presència de cumulonimbus.

METAR: GMMW 070400Z 26004KT CAVOK 11/10 Q1017 NOSIG

Hora: 04:54 (04:54 UTC)

Pronòstic

L'informe es va fer fa 5 hores i 54 minuts, a les 23:00 UTC
Pronòstic vàlid del 07 a les 00 UTC al 08 a les 06 UTC
Vent 2 kt amb direcció variable
Visibilitat 10 km o més
sense núvols per sota de 1500 mi sense presència de cumulonimbus.

TAF: GMMW 062300Z 0700/0806 VRB02KT CAVOK

Observacions i pronòstics meteorològics de més de 4000 aeroports (METAR i TAF).

Les estacions disponibles són els punts grocs i vermells al mapa.

Posi el ratolí al punt desitjat per veure el nom de l'estació.

Feu clic per veure les observacions i els pronòstics meteorològics.

Per canviar el mapa: feu clic els botons verds amb una creu de color negre per apropar; al botó verd amb un guió per allunyar la imatge; o en les fletxes verdes per a mapes adjacents.


METAR-TAF: